sensor_id;sensor_type;location;lat;lon;timestamp;P1;durP1;ratioP1;P2;durP2;ratioP2
1014;SDS011;8170;48.118;11.628;2023-03-04T00:00:21;57.65;;;37.58;;
1014;SDS011;8170;48.118;11.628;2023-03-04T00:01:23;62.42;;;37.40;;
1014;SDS011;8170;48.118;11.628;2023-03-04T00:02:26;57.28;;;37.83;;
1014;SDS011;8170;48.118;11.628;2023-03-04T00:03:29;75.63;;;45.50;;
1014;SDS011;8170;48.118;11.628;2023-03-04T00:04:32;64.40;;;40.55;;
1014;SDS011;8170;48.118;11.628;2023-03-04T00:05:34;60.50;;;38.90;;
1014;SDS011;8170;48.118;11.628;2023-03-04T00:06:37;70.07;;;40.38;;
1014;SDS011;8170;48.118;11.628;2023-03-04T00:07:39;59.60;;;39.38;;
1014;SDS011;8170;48.118;11.628;2023-03-04T00:08:43;67.65;;;42.53;;
1014;SDS011;8170;48.118;11.628;2023-03-04T00:09:45;69.63;;;43.65;;
1014;SDS011;8170;48.118;11.628;2023-03-04T00:10:48;74.57;;;43.17;;
1014;SDS011;8170;48.118;11.628;2023-03-04T00:11:50;63.58;;;40.88;;
1014;SDS011;8170;48.118;11.628;2023-03-04T00:12:53;64.22;;;40.78;;
1014;SDS011;8170;48.118;11.628;2023-03-04T00:13:56;62.05;;;39.80;;
1014;SDS011;8170;48.118;11.628;2023-03-04T00:15:01;61.17;;;37.67;;
1014;SDS011;8170;48.118;11.628;2023-03-04T00:16:04;53.75;;;35.60;;
1014;SDS011;8170;48.118;11.628;2023-03-04T00:17:07;57.55;;;37.40;;
1014;SDS011;8170;48.118;11.628;2023-03-04T00:18:09;65.32;;;41.22;;
1014;SDS011;8170;48.118;11.628;2023-03-04T00:19:12;63.90;;;39.05;;
1014;SDS011;8170;48.118;11.628;2023-03-04T00:20:15;73.53;;;43.40;;
1014;SDS011;8170;48.118;11.628;2023-03-04T00:21:18;64.50;;;41.42;;
1014;SDS011;8170;48.118;11.628;2023-03-04T00:22:21;68.90;;;42.80;;
1014;SDS011;8170;48.118;11.628;2023-03-04T00:23:24;66.38;;;42.28;;
1014;SDS011;8170;48.118;11.628;2023-03-04T00:24:26;73.47;;;44.17;;
1014;SDS011;8170;48.118;11.628;2023-03-04T00:25:29;62.22;;;40.10;;
1014;SDS011;8170;48.118;11.628;2023-03-04T00:26:31;59.63;;;37.58;;
1014;SDS011;8170;48.118;11.628;2023-03-04T00:27:34;63.03;;;38.70;;
1014;SDS011;8170;48.118;11.628;2023-03-04T00:28:36;59.75;;;37.33;;
1014;SDS011;8170;48.118;11.628;2023-03-04T00:29:40;62.03;;;40.67;;
1014;SDS011;8170;48.118;11.628;2023-03-04T00:30:43;65.15;;;41.08;;
1014;SDS011;8170;48.118;11.628;2023-03-04T00:31:47;64.13;;;39.38;;
1014;SDS011;8170;48.118;11.628;2023-03-04T00:32:49;61.45;;;40.00;;
1014;SDS011;8170;48.118;11.628;2023-03-04T00:33:52;71.55;;;43.08;;
1014;SDS011;8170;48.118;11.628;2023-03-04T00:34:54;69.63;;;42.05;;
1014;SDS011;8170;48.118;11.628;2023-03-04T00:35:58;73.20;;;44.63;;
1014;SDS011;8170;48.118;11.628;2023-03-04T00:37:00;74.45;;;43.70;;
1014;SDS011;8170;48.118;11.628;2023-03-04T00:38:04;57.85;;;37.67;;
1014;SDS011;8170;48.118;11.628;2023-03-04T00:39:06;66.50;;;41.90;;
1014;SDS011;8170;48.118;11.628;2023-03-04T00:40:10;61.22;;;38.55;;
1014;SDS011;8170;48.118;11.628;2023-03-04T00:41:13;62.65;;;39.95;;
1014;SDS011;8170;48.118;11.628;2023-03-04T00:42:16;70.93;;;41.95;;
1014;SDS011;8170;48.118;11.628;2023-03-04T00:43:18;62.40;;;38.53;;
1014;SDS011;8170;48.118;11.628;2023-03-04T00:44:21;64.70;;;39.70;;
1014;SDS011;8170;48.118;11.628;2023-03-04T00:45:24;68.07;;;43.35;;
1014;SDS011;8170;48.118;11.628;2023-03-04T00:46:28;73.45;;;45.20;;
1014;SDS011;8170;48.118;11.628;2023-03-04T00:47:31;75.07;;;45.17;;
1014;SDS011;8170;48.118;11.628;2023-03-04T00:48:34;67.90;;;40.90;;
1014;SDS011;8170;48.118;11.628;2023-03-04T00:49:36;68.35;;;39.60;;
1014;SDS011;8170;48.118;11.628;2023-03-04T00:50:39;73.88;;;45.28;;
1014;SDS011;8170;48.118;11.628;2023-03-04T00:51:41;65.25;;;42.53;;
1014;SDS011;8170;48.118;11.628;2023-03-04T00:52:44;73.22;;;44.08;;
1014;SDS011;8170;48.118;11.628;2023-03-04T00:53:47;70.32;;;42.42;;
1014;SDS011;8170;48.118;11.628;2023-03-04T00:54:50;66.28;;;40.72;;
1014;SDS011;8170;48.118;11.628;2023-03-04T00:55:52;72.10;;;43.95;;
1014;SDS011;8170;48.118;11.628;2023-03-04T00:56:55;61.60;;;39.05;;
1014;SDS011;8170;48.118;11.628;2023-03-04T00:57:57;75.57;;;45.72;;
1014;SDS011;8170;48.118;11.628;2023-03-04T00:59:00;74.47;;;43.50;;
1014;SDS011;8170;48.118;11.628;2023-03-04T01:00:02;70.05;;;41.13;;
1014;SDS011;8170;48.118;11.628;2023-03-04T01:01:06;76.63;;;45.95;;
1014;SDS011;8170;48.118;11.628;2023-03-04T01:02:11;67.28;;;41.17;;
1014;SDS011;8170;48.118;11.628;2023-03-04T01:03:13;69.60;;;43.05;;
1014;SDS011;8170;48.118;11.628;2023-03-04T01:04:17;65.05;;;40.83;;
1014;SDS011;8170;48.118;11.628;2023-03-04T01:05:19;70.22;;;45.55;;
1014;SDS011;8170;48.118;11.628;2023-03-04T01:06:22;62.80;;;41.15;;
1014;SDS011;8170;48.118;11.628;2023-03-04T01:07:24;60.90;;;40.53;;
1014;SDS011;8170;48.118;11.628;2023-03-04T01:08:28;62.05;;;39.95;;
1014;SDS011;8170;48.118;11.628;2023-03-04T01:09:30;66.30;;;40.92;;
1014;SDS011;8170;48.118;11.628;2023-03-04T01:10:33;68.38;;;42.40;;
1014;SDS011;8170;48.118;11.628;2023-03-04T01:11:36;65.68;;;40.38;;
1014;SDS011;8170;48.118;11.628;2023-03-04T01:12:39;61.15;;;39.55;;
1014;SDS011;8170;48.118;11.628;2023-03-04T01:13:42;61.45;;;40.15;;
1014;SDS011;8170;48.118;11.628;2023-03-04T01:14:45;61.72;;;39.95;;
1014;SDS011;8170;48.118;11.628;2023-03-04T01:15:47;69.88;;;45.50;;
1014;SDS011;8170;48.118;11.628;2023-03-04T01:16:50;60.90;;;35.92;;
1014;SDS011;8170;48.118;11.628;2023-03-04T01:17:54;62.83;;;38.13;;
1014;SDS011;8170;48.118;11.628;2023-03-04T01:18:57;59.33;;;39.25;;
1014;SDS011;8170;48.118;11.628;2023-03-04T01:19:59;61.40;;;37.65;;
1014;SDS011;8170;48.118;11.628;2023-03-04T01:21:03;59.28;;;36.25;;
1014;SDS011;8170;48.118;11.628;2023-03-04T01:22:06;59.00;;;37.78;;
1014;SDS011;8170;48.118;11.628;2023-03-04T01:23:09;60.83;;;38.60;;
1014;SDS011;8170;48.118;11.628;2023-03-04T01:24:11;63.13;;;38.67;;
1014;SDS011;8170;48.118;11.628;2023-03-04T01:25:14;70.30;;;42.78;;
1014;SDS011;8170;48.118;11.628;2023-03-04T01:26:17;71.80;;;42.72;;
1014;SDS011;8170;48.118;11.628;2023-03-04T01:27:21;67.38;;;40.35;;
1014;SDS011;8170;48.118;11.628;2023-03-04T01:28:24;67.97;;;43.15;;
1014;SDS011;8170;48.118;11.628;2023-03-04T01:29:27;66.53;;;41.90;;
1014;SDS011;8170;48.118;11.628;2023-03-04T01:30:30;71.95;;;43.05;;
1014;SDS011;8170;48.118;11.628;2023-03-04T01:31:33;73.65;;;44.22;;
1014;SDS011;8170;48.118;11.628;2023-03-04T01:32:36;67.25;;;43.15;;
1014;SDS011;8170;48.118;11.628;2023-03-04T01:33:40;59.85;;;38.83;;
1014;SDS011;8170;48.118;11.628;2023-03-04T01:34:43;64.32;;;40.60;;
1014;SDS011;8170;48.118;11.628;2023-03-04T01:35:46;72.35;;;42.47;;
1014;SDS011;8170;48.118;11.628;2023-03-04T01:36:48;67.20;;;41.45;;
1014;SDS011;8170;48.118;11.628;2023-03-04T01:37:52;72.55;;;44.22;;
1014;SDS011;8170;48.118;11.628;2023-03-04T01:38:54;72.13;;;41.88;;
1014;SDS011;8170;48.118;11.628;2023-03-04T01:39:58;62.38;;;39.88;;
1014;SDS011;8170;48.118;11.628;2023-03-04T01:41:00;57.80;;;36.50;;
1014;SDS011;8170;48.118;11.628;2023-03-04T01:42:03;59.50;;;39.53;;
1014;SDS011;8170;48.118;11.628;2023-03-04T01:43:05;54.80;;;38.10;;
1014;SDS011;8170;48.118;11.628;2023-03-04T01:44:09;54.95;;;35.30;;
1014;SDS011;8170;48.118;11.628;2023-03-04T01:45:12;64.38;;;41.50;;
1014;SDS011;8170;48.118;11.628;2023-03-04T01:46:17;61.75;;;40.17;;
1014;SDS011;8170;48.118;11.628;2023-03-04T01:47:22;55.30;;;36.28;;
1014;SDS011;8170;48.118;11.628;2023-03-04T01:48:29;71.50;;;42.50;;
1014;SDS011;8170;48.118;11.628;2023-03-04T01:49:35;56.42;;;37.80;;
1014;SDS011;8170;48.118;11.628;2023-03-04T01:50:39;64.70;;;41.85;;
1014;SDS011;8170;48.118;11.628;2023-03-04T01:51:41;62.50;;;40.78;;
1014;SDS011;8170;48.118;11.628;2023-03-04T01:52:45;63.35;;;40.22;;
1014;SDS011;8170;48.118;11.628;2023-03-04T01:53:48;65.82;;;38.85;;
1014;SDS011;8170;48.118;11.628;2023-03-04T01:54:53;58.88;;;37.83;;
1014;SDS011;8170;48.118;11.628;2023-03-04T01:55:56;55.50;;;36.10;;
1014;SDS011;8170;48.118;11.628;2023-03-04T01:57:13;55.72;;;35.75;;
1014;SDS011;8170;48.118;11.628;2023-03-04T01:58:17;63.28;;;40.03;;
1014;SDS011;8170;48.118;11.628;2023-03-04T01:59:24;68.78;;;41.47;;
1014;SDS011;8170;48.118;11.628;2023-03-04T02:00:30;65.55;;;37.28;;
1014;SDS011;8170;48.118;11.628;2023-03-04T02:01:34;66.65;;;42.00;;
1014;SDS011;8170;48.118;11.628;2023-03-04T02:02:38;62.97;;;37.95;;
1014;SDS011;8170;48.118;11.628;2023-03-04T02:03:41;69.03;;;41.25;;
1014;SDS011;8170;48.118;11.628;2023-03-04T02:04:45;64.22;;;37.85;;
1014;SDS011;8170;48.118;11.628;2023-03-04T02:05:48;60.33;;;38.28;;
1014;SDS011;8170;48.118;11.628;2023-03-04T02:06:52;52.38;;;34.70;;
1014;SDS011;8170;48.118;11.628;2023-03-04T02:07:56;66.72;;;40.97;;
1014;SDS011;8170;48.118;11.628;2023-03-04T02:08:59;52.00;;;34.50;;
1014;SDS011;8170;48.118;11.628;2023-03-04T02:10:03;51.53;;;34.58;;
1014;SDS011;8170;48.118;11.628;2023-03-04T02:11:08;51.83;;;34.20;;
1014;SDS011;8170;48.118;11.628;2023-03-04T02:12:11;57.35;;;37.03;;
1014;SDS011;8170;48.118;11.628;2023-03-04T02:13:13;63.00;;;36.92;;
1014;SDS011;8170;48.118;11.628;2023-03-04T02:14:17;58.92;;;36.90;;
1014;SDS011;8170;48.118;11.628;2023-03-04T02:15:20;65.20;;;41.67;;
1014;SDS011;8170;48.118;11.628;2023-03-04T02:16:24;58.58;;;36.95;;
1014;SDS011;8170;48.118;11.628;2023-03-04T02:17:27;63.75;;;38.58;;
1014;SDS011;8170;48.118;11.628;2023-03-04T02:18:30;59.30;;;35.80;;
1014;SDS011;8170;48.118;11.628;2023-03-04T02:19:36;58.05;;;38.13;;
1014;SDS011;8170;48.118;11.628;2023-03-04T02:20:53;52.88;;;36.58;;
1014;SDS011;8170;48.118;11.628;2023-03-04T02:22:02;53.90;;;34.13;;
1014;SDS011;8170;48.118;11.628;2023-03-04T02:23:06;50.95;;;33.00;;
1014;SDS011;8170;48.118;11.628;2023-03-04T02:24:12;62.10;;;39.28;;
1014;SDS011;8170;48.118;11.628;2023-03-04T02:25:21;65.15;;;39.00;;
1014;SDS011;8170;48.118;11.628;2023-03-04T02:26:30;66.50;;;41.33;;
1014;SDS011;8170;48.118;11.628;2023-03-04T02:27:35;62.67;;;39.03;;
1014;SDS011;8170;48.118;11.628;2023-03-04T02:28:37;57.42;;;34.80;;
1014;SDS011;8170;48.118;11.628;2023-03-04T02:29:41;52.15;;;34.45;;
1014;SDS011;8170;48.118;11.628;2023-03-04T02:30:43;51.55;;;34.03;;
1014;SDS011;8170;48.118;11.628;2023-03-04T02:31:47;63.97;;;39.35;;
1014;SDS011;8170;48.118;11.628;2023-03-04T02:32:50;66.18;;;40.05;;
1014;SDS011;8170;48.118;11.628;2023-03-04T02:33:55;67.35;;;42.05;;
1014;SDS011;8170;48.118;11.628;2023-03-04T02:35:00;58.47;;;35.95;;
1014;SDS011;8170;48.118;11.628;2023-03-04T02:36:04;56.05;;;36.75;;
1014;SDS011;8170;48.118;11.628;2023-03-04T02:37:08;63.05;;;39.50;;
1014;SDS011;8170;48.118;11.628;2023-03-04T02:38:14;62.13;;;39.10;;
1014;SDS011;8170;48.118;11.628;2023-03-04T02:39:20;58.90;;;37.40;;
1014;SDS011;8170;48.118;11.628;2023-03-04T02:40:27;54.63;;;35.97;;
1014;SDS011;8170;48.118;11.628;2023-03-04T02:41:34;54.75;;;36.25;;
1014;SDS011;8170;48.118;11.628;2023-03-04T02:42:38;59.10;;;38.88;;
1014;SDS011;8170;48.118;11.628;2023-03-04T02:43:40;59.75;;;38.95;;
1014;SDS011;8170;48.118;11.628;2023-03-04T02:44:45;61.35;;;38.72;;
1014;SDS011;8170;48.118;11.628;2023-03-04T02:45:52;69.07;;;41.28;;
1014;SDS011;8170;48.118;11.628;2023-03-04T02:46:55;59.97;;;38.35;;
1014;SDS011;8170;48.118;11.628;2023-03-04T02:47:59;56.88;;;36.78;;
1014;SDS011;8170;48.118;11.628;2023-03-04T02:49:02;65.20;;;39.85;;
1014;SDS011;8170;48.118;11.628;2023-03-04T02:50:04;61.75;;;38.45;;
1014;SDS011;8170;48.118;11.628;2023-03-04T02:51:08;57.42;;;38.13;;
1014;SDS011;8170;48.118;11.628;2023-03-04T02:52:13;63.63;;;39.60;;
1014;SDS011;8170;48.118;11.628;2023-03-04T02:53:19;57.00;;;36.65;;
1014;SDS011;8170;48.118;11.628;2023-03-04T02:54:23;58.58;;;38.47;;
1014;SDS011;8170;48.118;11.628;2023-03-04T02:55:26;54.05;;;35.85;;
1014;SDS011;8170;48.118;11.628;2023-03-04T02:56:29;54.78;;;35.35;;
1014;SDS011;8170;48.118;11.628;2023-03-04T02:57:34;58.67;;;37.38;;
1014;SDS011;8170;48.118;11.628;2023-03-04T02:58:36;58.25;;;37.05;;
1014;SDS011;8170;48.118;11.628;2023-03-04T02:59:42;62.38;;;37.60;;
1014;SDS011;8170;48.118;11.628;2023-03-04T03:00:49;60.47;;;36.90;;
1014;SDS011;8170;48.118;11.628;2023-03-04T03:01:52;65.28;;;39.97;;
1014;SDS011;8170;48.118;11.628;2023-03-04T03:02:55;55.08;;;34.55;;
1014;SDS011;8170;48.118;11.628;2023-03-04T03:03:58;58.10;;;36.03;;
1014;SDS011;8170;48.118;11.628;2023-03-04T03:05:01;58.70;;;37.08;;
1014;SDS011;8170;48.118;11.628;2023-03-04T03:06:04;54.08;;;34.17;;
1014;SDS011;8170;48.118;11.628;2023-03-04T03:07:07;56.85;;;35.40;;
1014;SDS011;8170;48.118;11.628;2023-03-04T03:08:11;56.90;;;36.72;;
1014;SDS011;8170;48.118;11.628;2023-03-04T03:09:14;52.10;;;34.17;;
1014;SDS011;8170;48.118;11.628;2023-03-04T03:10:17;56.45;;;38.20;;
1014;SDS011;8170;48.118;11.628;2023-03-04T03:11:20;52.22;;;34.00;;
1014;SDS011;8170;48.118;11.628;2023-03-04T03:12:26;55.10;;;35.17;;
1014;SDS011;8170;48.118;11.628;2023-03-04T03:13:29;48.33;;;32.58;;
1014;SDS011;8170;48.118;11.628;2023-03-04T03:14:34;52.88;;;34.40;;
1014;SDS011;8170;48.118;11.628;2023-03-04T03:15:38;60.90;;;36.63;;
1014;SDS011;8170;48.118;11.628;2023-03-04T03:16:43;62.38;;;38.15;;
1014;SDS011;8170;48.118;11.628;2023-03-04T03:17:45;54.42;;;35.60;;
1014;SDS011;8170;48.118;11.628;2023-03-04T03:18:49;58.72;;;35.13;;
1014;SDS011;8170;48.118;11.628;2023-03-04T03:19:51;60.35;;;38.28;;
1014;SDS011;8170;48.118;11.628;2023-03-04T03:20:55;55.20;;;34.70;;
1014;SDS011;8170;48.118;11.628;2023-03-04T03:21:58;61.67;;;39.67;;
1014;SDS011;8170;48.118;11.628;2023-03-04T03:23:00;55.95;;;36.30;;
1014;SDS011;8170;48.118;11.628;2023-03-04T03:24:04;49.42;;;33.08;;
1014;SDS011;8170;48.118;11.628;2023-03-04T03:25:06;60.97;;;38.22;;
1014;SDS011;8170;48.118;11.628;2023-03-04T03:26:11;57.75;;;36.00;;
1014;SDS011;8170;48.118;11.628;2023-03-04T03:27:13;53.42;;;33.88;;
1014;SDS011;8170;48.118;11.628;2023-03-04T03:28:17;49.35;;;32.30;;
1014;SDS011;8170;48.118;11.628;2023-03-04T03:29:20;51.65;;;32.85;;
1014;SDS011;8170;48.118;11.628;2023-03-04T03:30:23;47.75;;;32.10;;
1014;SDS011;8170;48.118;11.628;2023-03-04T03:31:25;50.22;;;32.20;;
1014;SDS011;8170;48.118;11.628;2023-03-04T03:32:29;51.53;;;33.20;;
1014;SDS011;8170;48.118;11.628;2023-03-04T03:33:31;53.50;;;35.92;;
1014;SDS011;8170;48.118;11.628;2023-03-04T03:34:34;52.30;;;35.25;;
1014;SDS011;8170;48.118;11.628;2023-03-04T03:35:37;52.55;;;35.17;;
1014;SDS011;8170;48.118;11.628;2023-03-04T03:36:40;47.65;;;32.53;;
1014;SDS011;8170;48.118;11.628;2023-03-04T03:37:42;50.58;;;32.78;;
1014;SDS011;8170;48.118;11.628;2023-03-04T03:38:45;56.08;;;36.08;;
1014;SDS011;8170;48.118;11.628;2023-03-04T03:39:47;49.92;;;32.63;;
1014;SDS011;8170;48.118;11.628;2023-03-04T03:40:50;51.50;;;34.15;;
1014;SDS011;8170;48.118;11.628;2023-03-04T03:41:53;49.90;;;33.38;;
1014;SDS011;8170;48.118;11.628;2023-03-04T03:42:56;47.65;;;31.35;;
1014;SDS011;8170;48.118;11.628;2023-03-04T03:43:59;49.92;;;33.17;;
1014;SDS011;8170;48.118;11.628;2023-03-04T03:45:03;52.78;;;33.65;;
1014;SDS011;8170;48.118;11.628;2023-03-04T03:46:07;53.33;;;32.35;;
1014;SDS011;8170;48.118;11.628;2023-03-04T03:47:10;49.33;;;32.55;;
1014;SDS011;8170;48.118;11.628;2023-03-04T03:48:13;53.63;;;34.95;;
1014;SDS011;8170;48.118;11.628;2023-03-04T03:49:15;61.58;;;38.83;;
1014;SDS011;8170;48.118;11.628;2023-03-04T03:50:18;52.92;;;33.05;;
1014;SDS011;8170;48.118;11.628;2023-03-04T03:51:20;52.67;;;35.42;;
1014;SDS011;8170;48.118;11.628;2023-03-04T03:52:24;66.60;;;40.72;;
1014;SDS011;8170;48.118;11.628;2023-03-04T03:53:26;59.85;;;35.15;;
1014;SDS011;8170;48.118;11.628;2023-03-04T03:54:29;51.78;;;33.63;;
1014;SDS011;8170;48.118;11.628;2023-03-04T03:55:31;54.08;;;35.50;;
1014;SDS011;8170;48.118;11.628;2023-03-04T03:56:34;57.42;;;35.42;;
1014;SDS011;8170;48.118;11.628;2023-03-04T03:57:36;53.75;;;35.67;;
1014;SDS011;8170;48.118;11.628;2023-03-04T03:58:40;55.05;;;36.80;;
1014;SDS011;8170;48.118;11.628;2023-03-04T03:59:42;63.38;;;41.05;;
1014;SDS011;8170;48.118;11.628;2023-03-04T04:00:46;53.00;;;34.97;;
1014;SDS011;8170;48.118;11.628;2023-03-04T04:01:48;48.55;;;32.45;;
1014;SDS011;8170;48.118;11.628;2023-03-04T04:02:52;54.83;;;34.28;;
1014;SDS011;8170;48.118;11.628;2023-03-04T04:03:56;61.85;;;36.75;;
1014;SDS011;8170;48.118;11.628;2023-03-04T04:04:59;58.15;;;36.05;;
1014;SDS011;8170;48.118;11.628;2023-03-04T04:06:01;56.40;;;35.72;;
1014;SDS011;8170;48.118;11.628;2023-03-04T04:07:04;53.95;;;34.10;;
1014;SDS011;8170;48.118;11.628;2023-03-04T04:08:07;51.97;;;33.13;;
1014;SDS011;8170;48.118;11.628;2023-03-04T04:09:21;56.25;;;36.17;;
1014;SDS011;8170;48.118;11.628;2023-03-04T04:10:23;61.38;;;38.15;;
1014;SDS011;8170;48.118;11.628;2023-03-04T04:11:26;50.35;;;34.75;;
1014;SDS011;8170;48.118;11.628;2023-03-04T04:12:28;58.58;;;35.88;;
1014;SDS011;8170;48.118;11.628;2023-03-04T04:13:32;66.45;;;40.80;;
1014;SDS011;8170;48.118;11.628;2023-03-04T04:14:34;61.63;;;37.42;;
1014;SDS011;8170;48.118;11.628;2023-03-04T04:15:37;57.63;;;36.55;;
1014;SDS011;8170;48.118;11.628;2023-03-04T04:16:41;58.50;;;36.83;;
1014;SDS011;8170;48.118;11.628;2023-03-04T04:17:44;57.83;;;35.63;;
1014;SDS011;8170;48.118;11.628;2023-03-04T04:18:46;54.03;;;35.67;;
1014;SDS011;8170;48.118;11.628;2023-03-04T04:19:49;53.25;;;35.05;;
1014;SDS011;8170;48.118;11.628;2023-03-04T04:20:52;54.95;;;36.83;;
1014;SDS011;8170;48.118;11.628;2023-03-04T04:21:55;60.80;;;35.17;;
1014;SDS011;8170;48.118;11.628;2023-03-04T04:22:57;55.78;;;35.30;;
1014;SDS011;8170;48.118;11.628;2023-03-04T04:24:00;50.95;;;32.63;;
1014;SDS011;8170;48.118;11.628;2023-03-04T04:25:03;67.10;;;40.33;;
1014;SDS011;8170;48.118;11.628;2023-03-04T04:26:08;56.67;;;35.00;;
1014;SDS011;8170;48.118;11.628;2023-03-04T04:27:10;59.60;;;37.00;;
1014;SDS011;8170;48.118;11.628;2023-03-04T04:28:13;60.17;;;38.65;;
1014;SDS011;8170;48.118;11.628;2023-03-04T04:29:15;55.90;;;36.65;;
1014;SDS011;8170;48.118;11.628;2023-03-04T04:30:18;56.75;;;36.67;;
1014;SDS011;8170;48.118;11.628;2023-03-04T04:31:21;57.55;;;36.15;;
1014;SDS011;8170;48.118;11.628;2023-03-04T04:32:25;59.85;;;37.13;;
1014;SDS011;8170;48.118;11.628;2023-03-04T04:33:27;63.45;;;39.95;;
1014;SDS011;8170;48.118;11.628;2023-03-04T04:34:30;53.00;;;35.47;;
1014;SDS011;8170;48.118;11.628;2023-03-04T04:35:32;50.63;;;34.72;;
1014;SDS011;8170;48.118;11.628;2023-03-04T04:36:39;50.95;;;34.85;;
1014;SDS011;8170;48.118;11.628;2023-03-04T04:37:42;49.88;;;32.45;;
1014;SDS011;8170;48.118;11.628;2023-03-04T04:38:44;57.58;;;36.28;;
1014;SDS011;8170;48.118;11.628;2023-03-04T04:39:49;58.38;;;37.00;;
1014;SDS011;8170;48.118;11.628;2023-03-04T04:40:52;52.92;;;34.40;;
1014;SDS011;8170;48.118;11.628;2023-03-04T04:41:55;66.70;;;39.90;;
1014;SDS011;8170;48.118;11.628;2023-03-04T04:42:57;62.22;;;39.35;;
1014;SDS011;8170;48.118;11.628;2023-03-04T04:44:00;51.95;;;34.13;;
1014;SDS011;8170;48.118;11.628;2023-03-04T04:45:03;68.90;;;41.20;;
1014;SDS011;8170;48.118;11.628;2023-03-04T04:46:07;65.32;;;40.30;;
1014;SDS011;8170;48.118;11.628;2023-03-04T04:47:09;55.53;;;35.03;;
1014;SDS011;8170;48.118;11.628;2023-03-04T04:48:14;68.30;;;41.90;;
1014;SDS011;8170;48.118;11.628;2023-03-04T04:49:16;55.70;;;34.90;;
1014;SDS011;8170;48.118;11.628;2023-03-04T04:50:19;59.85;;;37.33;;
1014;SDS011;8170;48.118;11.628;2023-03-04T04:51:21;53.53;;;34.60;;
1014;SDS011;8170;48.118;11.628;2023-03-04T04:52:25;50.80;;;35.28;;
1014;SDS011;8170;48.118;11.628;2023-03-04T04:53:27;60.50;;;38.33;;
1014;SDS011;8170;48.118;11.628;2023-03-04T04:54:30;64.10;;;38.20;;
1014;SDS011;8170;48.118;11.628;2023-03-04T04:55:33;52.38;;;34.50;;
1014;SDS011;8170;48.118;11.628;2023-03-04T04:56:36;53.90;;;35.63;;
1014;SDS011;8170;48.118;11.628;2023-03-04T04:57:38;48.47;;;32.03;;
1014;SDS011;8170;48.118;11.628;2023-03-04T04:58:41;48.30;;;31.65;;
1014;SDS011;8170;48.118;11.628;2023-03-04T04:59:44;52.03;;;33.58;;
1014;SDS011;8170;48.118;11.628;2023-03-04T05:00:47;51.50;;;32.45;;
1014;SDS011;8170;48.118;11.628;2023-03-04T05:01:49;54.67;;;33.85;;
1014;SDS011;8170;48.118;11.628;2023-03-04T05:02:52;52.38;;;32.05;;
1014;SDS011;8170;48.118;11.628;2023-03-04T05:03:56;55.13;;;33.63;;
1014;SDS011;8170;48.118;11.628;2023-03-04T05:04:59;54.90;;;34.35;;
1014;SDS011;8170;48.118;11.628;2023-03-04T05:06:01;58.85;;;36.33;;
1014;SDS011;8170;48.118;11.628;2023-03-04T05:07:05;48.15;;;32.30;;
1014;SDS011;8170;48.118;11.628;2023-03-04T05:08:07;55.38;;;33.65;;
1014;SDS011;8170;48.118;11.628;2023-03-04T05:09:11;51.90;;;36.53;;
1014;SDS011;8170;48.118;11.628;2023-03-04T05:10:13;53.20;;;33.47;;
1014;SDS011;8170;48.118;11.628;2023-03-04T05:11:16;57.95;;;35.90;;
1014;SDS011;8170;48.118;11.628;2023-03-04T05:12:19;51.05;;;32.15;;
1014;SDS011;8170;48.118;11.628;2023-03-04T05:13:23;48.55;;;32.65;;
1014;SDS011;8170;48.118;11.628;2023-03-04T05:14:25;62.58;;;39.03;;
1014;SDS011;8170;48.118;11.628;2023-03-04T05:15:28;56.03;;;35.28;;
1014;SDS011;8170;48.118;11.628;2023-03-04T05:16:31;49.88;;;32.75;;
1014;SDS011;8170;48.118;11.628;2023-03-04T05:17:34;53.70;;;33.13;;
1014;SDS011;8170;48.118;11.628;2023-03-04T05:18:36;53.45;;;34.08;;
1014;SDS011;8170;48.118;11.628;2023-03-04T05:19:41;47.72;;;31.15;;
1014;SDS011;8170;48.118;11.628;2023-03-04T05:20:43;52.78;;;32.90;;
1014;SDS011;8170;48.118;11.628;2023-03-04T05:21:46;56.42;;;36.30;;
1014;SDS011;8170;48.118;11.628;2023-03-04T05:22:48;59.00;;;37.20;;
1014;SDS011;8170;48.118;11.628;2023-03-04T05:23:52;48.97;;;35.25;;
1014;SDS011;8170;48.118;11.628;2023-03-04T05:24:54;56.72;;;36.97;;
1014;SDS011;8170;48.118;11.628;2023-03-04T05:25:57;48.60;;;32.03;;
1014;SDS011;8170;48.118;11.628;2023-03-04T05:26:59;48.78;;;32.40;;
1014;SDS011;8170;48.118;11.628;2023-03-04T05:28:03;54.83;;;33.67;;
1014;SDS011;8170;48.118;11.628;2023-03-04T05:29:07;46.80;;;31.25;;
1014;SDS011;8170;48.118;11.628;2023-03-04T05:30:11;44.65;;;29.08;;
1014;SDS011;8170;48.118;11.628;2023-03-04T05:31:13;46.03;;;29.70;;
1014;SDS011;8170;48.118;11.628;2023-03-04T05:32:18;54.20;;;34.97;;
1014;SDS011;8170;48.118;11.628;2023-03-04T05:33:20;55.03;;;35.38;;
1014;SDS011;8170;48.118;11.628;2023-03-04T05:34:23;55.40;;;35.95;;
1014;SDS011;8170;48.118;11.628;2023-03-04T05:35:27;50.38;;;32.00;;
1014;SDS011;8170;48.118;11.628;2023-03-04T05:36:30;53.08;;;36.10;;
1014;SDS011;8170;48.118;11.628;2023-03-04T05:37:32;45.33;;;31.48;;
1014;SDS011;8170;48.118;11.628;2023-03-04T05:38:35;57.25;;;37.00;;
1014;SDS011;8170;48.118;11.628;2023-03-04T05:39:38;59.40;;;34.88;;
1014;SDS011;8170;48.118;11.628;2023-03-04T05:40:41;47.55;;;31.92;;
1014;SDS011;8170;48.118;11.628;2023-03-04T05:41:43;43.97;;;29.65;;
1014;SDS011;8170;48.118;11.628;2023-03-04T05:42:46;44.80;;;30.55;;
1014;SDS011;8170;48.118;11.628;2023-03-04T05:43:49;53.60;;;31.85;;
1014;SDS011;8170;48.118;11.628;2023-03-04T05:44:52;50.15;;;31.58;;
1014;SDS011;8170;48.118;11.628;2023-03-04T05:45:54;46.75;;;31.38;;
1014;SDS011;8170;48.118;11.628;2023-03-04T05:46:57;41.67;;;27.90;;
1014;SDS011;8170;48.118;11.628;2023-03-04T05:47:59;47.20;;;29.02;;
1014;SDS011;8170;48.118;11.628;2023-03-04T05:49:03;54.58;;;35.30;;
1014;SDS011;8170;48.118;11.628;2023-03-04T05:50:06;46.10;;;31.48;;
1014;SDS011;8170;48.118;11.628;2023-03-04T05:51:11;51.97;;;33.30;;
1014;SDS011;8170;48.118;11.628;2023-03-04T05:52:14;50.92;;;33.72;;
1014;SDS011;8170;48.118;11.628;2023-03-04T05:53:16;47.78;;;31.50;;
1014;SDS011;8170;48.118;11.628;2023-03-04T05:54:19;47.88;;;31.45;;
1014;SDS011;8170;48.118;11.628;2023-03-04T05:55:22;42.80;;;28.13;;
1014;SDS011;8170;48.118;11.628;2023-03-04T05:56:25;42.40;;;29.35;;
1014;SDS011;8170;48.118;11.628;2023-03-04T05:57:27;46.25;;;30.75;;
1014;SDS011;8170;48.118;11.628;2023-03-04T05:58:32;44.72;;;29.63;;
1014;SDS011;8170;48.118;11.628;2023-03-04T05:59:34;45.38;;;30.05;;
1014;SDS011;8170;48.118;11.628;2023-03-04T06:00:38;45.03;;;31.33;;
1014;SDS011;8170;48.118;11.628;2023-03-04T06:01:40;55.55;;;33.72;;
1014;SDS011;8170;48.118;11.628;2023-03-04T06:02:43;46.58;;;30.70;;
1014;SDS011;8170;48.118;11.628;2023-03-04T06:03:45;44.55;;;30.13;;
1014;SDS011;8170;48.118;11.628;2023-03-04T06:04:49;43.85;;;30.23;;
1014;SDS011;8170;48.118;11.628;2023-03-04T06:05:52;43.58;;;29.13;;
1014;SDS011;8170;48.118;11.628;2023-03-04T06:06:57;47.95;;;31.23;;
1014;SDS011;8170;48.118;11.628;2023-03-04T06:08:00;49.38;;;34.17;;
1014;SDS011;8170;48.118;11.628;2023-03-04T06:09:02;46.72;;;30.58;;
1014;SDS011;8170;48.118;11.628;2023-03-04T06:10:06;47.28;;;33.40;;
1014;SDS011;8170;48.118;11.628;2023-03-04T06:11:09;39.25;;;30.15;;
1014;SDS011;8170;48.118;11.628;2023-03-04T06:12:12;42.88;;;29.17;;
1014;SDS011;8170;48.118;11.628;2023-03-04T06:13:14;47.38;;;31.17;;
1014;SDS011;8170;48.118;11.628;2023-03-04T06:14:17;45.15;;;30.30;;
1014;SDS011;8170;48.118;11.628;2023-03-04T06:15:19;44.95;;;31.67;;